createdAt,value
2024-05-09T00:10:22.618Z,317.60
2024-05-09T00:25:39.573Z,317.47
2024-05-09T00:41:04.497Z,317.84
2024-05-09T00:56:29.623Z,318.84
2024-05-09T01:11:54.755Z,319.68
2024-05-09T01:27:19.439Z,319.74
2024-05-09T01:42:44.466Z,320.79
2024-05-09T01:58:09.914Z,320.88
2024-05-09T02:13:34.499Z,320.84
2024-05-09T02:28:59.453Z,321.39
2024-05-09T02:44:24.524Z,321.49
2024-05-09T02:59:49.402Z,322.12
2024-05-09T03:15:14.442Z,321.99
2024-05-09T03:30:42.429Z,322.22
2024-05-09T03:46:04.397Z,322.17
2024-05-09T04:01:29.469Z,320.67
2024-05-09T04:16:54.423Z,320.37
2024-05-09T04:32:19.474Z,320.24
2024-05-09T04:47:44.430Z,319.57
2024-05-09T05:03:10.780Z,319.22
2024-05-09T05:18:34.352Z,319.53
2024-05-09T05:33:59.404Z,318.70
2024-05-09T05:49:24.463Z,317.53
2024-05-09T06:04:49.472Z,317.35
2024-05-09T06:20:20.610Z,316.67
2024-05-09T06:35:39.622Z,316.69
2024-05-09T06:51:04.317Z,316.52
2024-05-09T07:06:29.242Z,317.21
2024-05-09T07:21:54.205Z,318.48
2024-05-09T07:37:19.484Z,319.48
2024-05-09T07:53:34.386Z,320.62
2024-05-09T08:08:09.236Z,321.85
2024-05-09T08:23:35.197Z,322.70
2024-05-09T08:39:00.280Z,323.22
2024-05-09T08:54:25.236Z,323.78
2024-05-09T09:09:50.191Z,324.66
2024-05-09T09:25:15.401Z,324.64
2024-05-09T09:40:46.519Z,323.72
2024-05-09T09:56:06.209Z,324.91
2024-05-09T10:11:32.866Z,326.29
2024-05-09T10:26:56.154Z,326.99
2024-05-09T10:42:21.236Z,326.92
2024-05-09T10:57:46.244Z,328.79
2024-05-09T11:13:11.209Z,329.43
2024-05-09T11:28:36.450Z,330.09
2024-05-09T11:44:01.100Z,330.88
2024-05-09T11:59:26.138Z,331.94
2024-05-09T12:14:51.107Z,333.43
2024-05-09T12:30:25.173Z,334.58
2024-05-09T12:45:42.108Z,334.53
2024-05-09T13:01:07.600Z,335.64
2024-05-09T13:16:32.288Z,336.64
2024-05-09T13:31:57.073Z,337.61
2024-05-09T13:47:22.127Z,339.03
2024-05-09T14:02:47.051Z,339.41
2024-05-09T14:18:14.335Z,340.49
2024-05-09T14:33:39.204Z,341.74
2024-05-09T14:49:04.103Z,342.65
2024-05-09T15:04:29.163Z,343.31
2024-05-09T15:19:54.043Z,343.59
2024-05-09T15:35:19.015Z,344.45
2024-05-09T15:50:44.405Z,344.80
2024-05-09T16:06:09.964Z,344.43
2024-05-09T16:21:35.108Z,344.51
2024-05-09T16:37:00.145Z,345.31
2024-05-09T16:52:24.999Z,345.04
2024-05-09T17:07:50.909Z,345.21
2024-05-09T17:23:17.412Z,345.08
2024-05-09T17:38:41.996Z,344.84
2024-05-09T17:54:06.963Z,343.81
2024-05-09T18:09:31.945Z,343.31
2024-05-09T18:24:56.957Z,343.63
2024-05-09T18:55:46.927Z,342.19
2024-05-09T19:11:11.973Z,341.38
2024-05-09T19:26:36.958Z,339.16
2024-05-09T19:42:01.842Z,338.16
2024-05-09T19:57:26.962Z,337.22
2024-05-09T20:12:51.907Z,336.70
2024-05-09T20:28:17.016Z,336.82
2024-05-09T20:43:41.992Z,336.90
2024-05-09T20:59:06.909Z,337.37
2024-05-09T21:14:31.860Z,337.07
2024-05-09T21:29:56.839Z,337.49
2024-05-09T21:46:02.724Z,338.27
2024-05-09T22:01:28.013Z,338.39
2024-05-09T22:16:53.862Z,338.29
2024-05-09T22:32:18.912Z,338.67
2024-05-09T22:47:44.898Z,338.57
2024-05-09T23:03:09.885Z,339.46
2024-05-09T23:18:34.961Z,339.94
2024-05-09T23:33:59.975Z,340.87
2024-05-09T23:49:24.932Z,342.51
